Princeton, Wisconsin
Current Conditions -  °F | °C
As of 10:56 AM on Sunday 21 Dec 2014 (Local Time) from KY50 Reporting Station
Haze Haze  
Wind Chill: 27°   Ceiling: 600
Heat Index: 34°   Visibility: 2.5mi
Dew Point: 33°   Wind: 8mph
Humidity: 96%   Direction: 160°SSE
Pressure: 30.06"   Gusts: NA
Location:  43.85°N, 89.12°W
Report Text: KY50 211656Z AUTO 16007KT 2 1/2SM BR OVC006 01/01 A3006 RMK AO2 TSNO T00110005 SLP187
Loading
Personal Weather Stations






























Interactive Weather Map New forecast layout! Learn more

10-Day Weather Forecast

Advertisements
Track Severe Weather on mobile